createdAt,value
2023-03-13T00:09:49.003Z,50.834888
2023-03-13T00:10:48.972Z,50.834747
2023-03-13T00:11:49.078Z,50.834732
2023-03-13T00:12:48.974Z,50.834770
2023-03-13T00:13:48.997Z,50.834789
2023-03-13T00:14:48.947Z,50.834827
2023-03-13T00:15:48.957Z,50.834805
2023-03-13T00:16:49.062Z,50.834782
2023-03-13T00:17:48.965Z,50.834785
2023-03-13T00:18:48.950Z,50.834789
2023-03-13T00:19:48.924Z,50.834774
2023-03-13T00:20:48.946Z,50.834766
2023-03-13T00:21:48.910Z,50.834782
2023-03-13T00:22:48.892Z,50.834785
2023-03-13T00:23:48.881Z,50.834774
2023-03-13T00:24:49.336Z,50.834755
2023-03-13T00:25:48.864Z,50.834770
2023-03-13T00:26:48.877Z,50.834808
2023-03-13T00:27:48.867Z,50.834797
2023-03-13T00:28:48.846Z,50.834820
2023-03-13T00:29:48.881Z,50.834805
2023-03-13T00:30:48.887Z,50.834789
2023-03-13T00:31:49.736Z,50.834793
2023-03-13T00:32:48.927Z,50.834789
2023-03-13T00:33:48.855Z,50.834797
2023-03-13T00:34:48.813Z,50.834805
2023-03-13T00:35:48.887Z,50.834778
2023-03-13T00:36:48.798Z,50.834785
2023-03-13T00:37:48.777Z,50.834797
2023-03-13T00:38:48.786Z,50.834774
2023-03-13T00:39:48.752Z,50.834778
2023-03-13T00:40:48.760Z,50.834782
2023-03-13T00:41:48.913Z,50.834778
2023-03-13T00:42:49.626Z,50.834778
2023-03-13T00:43:48.727Z,50.834785
2023-03-13T00:44:48.699Z,50.834785
2023-03-13T00:45:48.779Z,50.834766
2023-03-13T00:46:48.691Z,50.834755
2023-03-13T00:47:48.705Z,50.834747
2023-03-13T00:48:48.688Z,50.834766
2023-03-13T00:49:48.676Z,50.834778
2023-03-13T00:50:48.662Z,50.834797
2023-03-13T00:51:48.726Z,50.834782
2023-03-13T00:52:48.699Z,50.834797
2023-03-13T00:53:48.657Z,50.834801
2023-03-13T00:54:48.708Z,50.834824
2023-03-13T00:55:48.705Z,50.834808
2023-03-13T00:56:48.779Z,50.834782
2023-03-13T00:57:48.704Z,50.834793
2023-03-13T00:58:48.632Z,50.834820
2023-03-13T00:59:49.194Z,50.834820
2023-03-13T01:00:48.595Z,50.834805
2023-03-13T01:01:48.638Z,50.834805
2023-03-13T01:02:48.747Z,50.834805
2023-03-13T01:03:50.994Z,50.834812
2023-03-13T01:04:48.587Z,50.834801
2023-03-13T01:05:48.562Z,50.834797
2023-03-13T01:06:48.587Z,50.834831
2023-03-13T01:07:48.625Z,50.834801
2023-03-13T01:08:48.559Z,50.834782
2023-03-13T01:09:48.555Z,50.834812
2023-03-13T01:10:48.539Z,50.834824
2023-03-13T01:11:48.524Z,50.834839
2023-03-13T01:12:48.534Z,50.834808
2023-03-13T01:13:49.211Z,50.834805
2023-03-13T01:14:48.659Z,50.834793
2023-03-13T01:15:48.540Z,50.834785
2023-03-13T01:16:48.493Z,50.834789
2023-03-13T01:17:48.473Z,50.834808
2023-03-13T01:18:48.492Z,50.834793
2023-03-13T01:19:48.481Z,50.834805
2023-03-13T01:20:48.466Z,50.834812
2023-03-13T01:21:48.493Z,50.834801
2023-03-13T01:22:48.433Z,50.834766
2023-03-13T01:23:48.454Z,50.834827
2023-03-13T01:24:48.446Z,50.834793
2023-03-13T01:25:48.424Z,50.834793
2023-03-13T01:26:49.180Z,50.834797
2023-03-13T01:27:49.150Z,50.834801
2023-03-13T01:28:48.388Z,50.834808
2023-03-13T01:29:48.396Z,50.834808
2023-03-13T01:30:48.449Z,50.834801
2023-03-13T01:31:48.397Z,50.834793
2023-03-13T01:32:48.451Z,50.834789
2023-03-13T01:33:48.376Z,50.834785
2023-03-13T01:34:48.375Z,50.834782
2023-03-13T01:35:48.384Z,50.834820
2023-03-13T01:36:48.347Z,50.834766
2023-03-13T01:37:48.357Z,50.834743
2023-03-13T01:38:48.308Z,50.834751
2023-03-13T01:39:48.495Z,50.834755
2023-03-13T01:40:48.323Z,50.834778
2023-03-13T01:41:48.280Z,50.834805
2023-03-13T01:42:48.313Z,50.834782
2023-03-13T01:43:49.718Z,50.834797
2023-03-13T01:44:48.281Z,50.834789
2023-03-13T01:45:48.291Z,50.834797
2023-03-13T01:46:48.337Z,50.834797
2023-03-13T01:47:48.270Z,50.834801
2023-03-13T01:48:49.303Z,50.834801
2023-03-13T01:49:49.234Z,50.834766
2023-03-13T01:50:48.230Z,50.834820
2023-03-13T01:51:48.235Z,50.834808
2023-03-13T01:52:48.226Z,50.834785
2023-03-13T01:53:48.194Z,50.834797
2023-03-13T01:54:48.204Z,50.834816
2023-03-13T01:55:48.217Z,50.834812
2023-03-13T01:56:48.228Z,50.834808
2023-03-13T01:57:48.186Z,50.834816
2023-03-13T01:58:48.170Z,50.834797
2023-03-13T01:59:48.147Z,50.834801
2023-03-13T02:00:48.148Z,50.834805
2023-03-13T02:01:48.176Z,50.834820
2023-03-13T02:02:48.247Z,50.834805
2023-03-13T02:07:29.045Z,50.834766
2023-03-13T02:08:29.020Z,50.834789
2023-03-13T02:09:29.005Z,50.834801
2023-03-13T02:10:29.015Z,50.834797
2023-03-13T02:11:29.001Z,50.834763
2023-03-13T02:12:29.015Z,50.834778
2023-03-13T02:13:28.998Z,50.834789
2023-03-13T02:14:28.986Z,50.834782
2023-03-13T02:15:28.943Z,50.834763
2023-03-13T02:16:28.989Z,50.834801
2023-03-13T02:17:28.961Z,50.834743
2023-03-13T02:18:28.971Z,50.834694
2023-03-13T02:19:28.945Z,50.834770
2023-03-13T02:20:29.423Z,50.834797
2023-03-13T02:21:28.968Z,50.834812
2023-03-13T02:22:28.918Z,50.834812
2023-03-13T02:23:29.173Z,50.834782
2023-03-13T02:24:28.869Z,50.834774
2023-03-13T02:25:28.881Z,50.834789
2023-03-13T02:26:28.865Z,50.834824
2023-03-13T02:27:28.874Z,50.834812
2023-03-13T02:28:28.883Z,50.834831
2023-03-13T02:29:28.878Z,50.834820
2023-03-13T02:30:28.852Z,50.834816
2023-03-13T02:31:28.841Z,50.834839
2023-03-13T02:32:28.923Z,50.834824
2023-03-13T02:33:29.414Z,50.834831
2023-03-13T02:34:28.840Z,50.834820
2023-03-13T02:35:28.863Z,50.834816
2023-03-13T02:36:28.820Z,50.834839
2023-03-13T02:37:28.786Z,50.834843
2023-03-13T02:38:28.786Z,50.834854
2023-03-13T02:39:28.770Z,50.834827
2023-03-13T02:40:30.618Z,50.834866
2023-03-13T02:41:28.751Z,50.834843
2023-03-13T02:42:28.745Z,50.834843
2023-03-13T02:43:29.599Z,50.834824
2023-03-13T02:44:28.753Z,50.834843
2023-03-13T02:45:28.711Z,50.834843
2023-03-13T02:46:28.749Z,50.834846
2023-03-13T02:47:28.716Z,50.834858
2023-03-13T02:48:28.714Z,50.834854
2023-03-13T02:49:28.707Z,50.834850
2023-03-13T02:50:28.684Z,50.834827
2023-03-13T02:51:28.655Z,50.834827
2023-03-13T02:52:28.696Z,50.834824
2023-03-13T02:53:28.751Z,50.834835
2023-03-13T02:54:28.665Z,50.834843
2023-03-13T02:55:28.656Z,50.834881
2023-03-13T02:56:29.584Z,50.834888
2023-03-13T02:57:29.590Z,50.834873
2023-03-13T02:58:30.281Z,50.834866
2023-03-13T02:59:28.627Z,50.834835
2023-03-13T03:00:28.681Z,50.834839
2023-03-13T03:01:28.597Z,50.834858
2023-03-13T03:02:28.629Z,50.834835
2023-03-13T03:03:29.593Z,50.834866
2023-03-13T03:04:28.571Z,50.834850
2023-03-13T03:05:28.570Z,50.834831
2023-03-13T03:06:28.574Z,50.834854
2023-03-13T03:07:28.632Z,50.834846
2023-03-13T03:08:28.552Z,50.834862
2023-03-13T03:09:28.549Z,50.834839
2023-03-13T03:10:28.563Z,50.834862
2023-03-13T03:11:28.535Z,50.834831
2023-03-13T03:12:28.568Z,50.834827
2023-03-13T03:13:28.581Z,50.834850
2023-03-13T03:14:28.486Z,50.834843
2023-03-13T03:15:28.492Z,50.834839
2023-03-13T03:16:28.537Z,50.834835
2023-03-13T03:17:29.133Z,50.834835
2023-03-13T03:18:28.482Z,50.834858
2023-03-13T03:19:28.478Z,50.834858
2023-03-13T03:20:29.448Z,50.834846
2023-03-13T03:21:28.493Z,50.834846
2023-03-13T03:22:28.451Z,50.834824
2023-03-13T03:23:28.449Z,50.834820
2023-03-13T03:24:28.444Z,50.834839
2023-03-13T03:25:28.412Z,50.834854
2023-03-13T03:26:28.407Z,50.834835
2023-03-13T03:27:28.431Z,50.834831
2023-03-13T03:28:28.388Z,50.834805
2023-03-13T03:29:28.425Z,50.834843
2023-03-13T03:30:28.925Z,50.834831
2023-03-13T03:31:28.409Z,50.834793
2023-03-13T03:32:28.515Z,50.834839
2023-03-13T03:33:28.328Z,50.834759
2023-03-13T03:34:29.387Z,50.834751
2023-03-13T03:35:28.393Z,50.834778
2023-03-13T03:36:28.320Z,50.834785
2023-03-13T03:37:29.165Z,50.834805
2023-03-13T03:38:28.302Z,50.834816
2023-03-13T03:39:28.310Z,50.834820
2023-03-13T03:40:28.665Z,50.834827
2023-03-13T03:41:28.302Z,50.834827
2023-03-13T03:42:28.284Z,50.834824
2023-03-13T03:43:28.278Z,50.834824
2023-03-13T03:44:29.110Z,50.834824
2023-03-13T03:45:28.372Z,50.834805
2023-03-13T03:46:28.250Z,50.834824
2023-03-13T04:06:44.705Z,50.834824
2023-03-13T04:07:44.680Z,50.834785
2023-03-13T04:08:44.685Z,50.834816
2023-03-13T04:09:44.632Z,50.834763
2023-03-13T04:10:44.632Z,50.834850
2023-03-13T04:11:44.612Z,50.834824
2023-03-13T04:12:44.591Z,50.834805
2023-03-13T04:13:44.612Z,50.834797
2023-03-13T04:14:44.598Z,50.834805
2023-03-13T04:15:45.155Z,50.834808
2023-03-13T04:16:44.660Z,50.834785
2023-03-13T04:17:44.596Z,50.834812
2023-03-13T04:18:44.604Z,50.834793
2023-03-13T04:19:44.601Z,50.834785
2023-03-13T04:20:44.585Z,50.834793
2023-03-13T04:21:44.555Z,50.834782
2023-03-13T04:22:44.556Z,50.834793
2023-03-13T04:23:44.518Z,50.834812
2023-03-13T04:24:44.600Z,50.834812
2023-03-13T04:26:17.170Z,50.834785
2023-03-13T04:26:44.568Z,50.834812
2023-03-13T04:27:44.546Z,50.834820
2023-03-13T04:28:44.498Z,50.834820
2023-03-13T04:29:44.468Z,50.834843
2023-03-13T04:30:44.524Z,50.834869
2023-03-13T04:31:44.470Z,50.834866
2023-03-13T04:32:44.589Z,50.834846
2023-03-13T04:33:44.475Z,50.834812
2023-03-13T04:34:44.410Z,50.834835
2023-03-13T04:35:44.661Z,50.834805
2023-03-13T04:36:44.429Z,50.834808
2023-03-13T04:37:44.424Z,50.834831
2023-03-13T04:38:44.386Z,50.834827
2023-03-13T04:39:44.435Z,50.834858
2023-03-13T04:40:44.403Z,50.834869
2023-03-13T04:41:44.428Z,50.834854
2023-03-13T04:42:44.355Z,50.834846
2023-03-13T04:43:44.363Z,50.834839
2023-03-13T04:44:44.358Z,50.834850
2023-03-13T04:45:44.423Z,50.834835
2023-03-13T04:46:44.341Z,50.834835
2023-03-13T04:47:44.335Z,50.834843
2023-03-13T04:48:44.345Z,50.834835
2023-03-13T04:49:44.303Z,50.834820
2023-03-13T04:50:44.344Z,50.834843
2023-03-13T04:51:44.310Z,50.834827
2023-03-13T04:52:44.349Z,50.834816
2023-03-13T04:53:44.292Z,50.834827
2023-03-13T04:54:44.309Z,50.834831
2023-03-13T04:55:44.311Z,50.834827
2023-03-13T04:56:44.457Z,50.834808
2023-03-13T04:57:44.282Z,50.834812
2023-03-13T04:58:46.837Z,50.834812
2023-03-13T04:59:44.266Z,50.834808
2023-03-13T05:00:44.235Z,50.834801
2023-03-13T05:01:44.340Z,50.834797
2023-03-13T05:02:44.301Z,50.834789
2023-03-13T05:03:44.258Z,50.834801
2023-03-13T05:04:44.251Z,50.834801
2023-03-13T05:05:44.221Z,50.834793
2023-03-13T05:06:44.216Z,50.834801
2023-03-13T05:07:44.346Z,50.834812
2023-03-13T05:08:44.234Z,50.834805
2023-03-13T05:09:44.165Z,50.834785
2023-03-13T05:10:44.173Z,50.834793
2023-03-13T05:11:44.148Z,50.834805
2023-03-13T05:12:44.163Z,50.834797
2023-03-13T05:13:44.154Z,50.834789
2023-03-13T05:14:44.145Z,50.834793
2023-03-13T05:15:44.842Z,50.834778
2023-03-13T05:16:44.130Z,50.834793
2023-03-13T05:17:44.114Z,50.834785
2023-03-13T05:18:44.188Z,50.834785
2023-03-13T05:19:44.116Z,50.834782
2023-03-13T05:20:44.092Z,50.834770
2023-03-13T05:21:44.068Z,50.834785
2023-03-13T05:22:44.090Z,50.834801
2023-03-13T05:23:44.087Z,50.834774
2023-03-13T05:24:44.051Z,50.834770
2023-03-13T05:25:44.079Z,50.834789
2023-03-13T05:26:44.108Z,50.834808
2023-03-13T05:27:44.049Z,50.834789
2023-03-13T05:28:44.052Z,50.834789
2023-03-13T05:29:44.024Z,50.834785
2023-03-13T05:30:44.086Z,50.834797
2023-03-13T05:31:44.021Z,50.834820
2023-03-13T05:32:44.077Z,50.834812
2023-03-13T05:33:44.005Z,50.834797
2023-03-13T05:34:44.779Z,50.834778
2023-03-13T05:35:43.999Z,50.834793
2023-03-13T05:36:44.018Z,50.834785
2023-03-13T05:37:43.977Z,50.834782
2023-03-13T05:38:44.025Z,50.834785
2023-03-13T05:39:44.347Z,50.834789
2023-03-13T05:40:43.923Z,50.834801
2023-03-13T05:41:43.905Z,50.834812
2023-03-13T05:42:43.951Z,50.834827
2023-03-13T05:43:43.929Z,50.834820
2023-03-13T05:44:43.917Z,50.834801
2023-03-13T05:45:43.908Z,50.834820
2023-03-13T05:46:43.919Z,50.834808
2023-03-13T05:47:43.878Z,50.834797
2023-03-13T05:48:43.873Z,50.834812
2023-03-13T05:49:43.862Z,50.834805
2023-03-13T05:50:43.870Z,50.834793
2023-03-13T05:51:43.863Z,50.834824
2023-03-13T05:52:43.876Z,50.834812
2023-03-13T05:53:43.827Z,50.834812
2023-03-13T05:54:43.832Z,50.834827
2023-03-13T05:55:43.823Z,50.834816
2023-03-13T05:56:43.822Z,50.834808
2023-03-13T05:57:43.804Z,50.834808
2023-03-13T05:58:43.867Z,50.834808
2023-03-13T05:59:43.771Z,50.834782
2023-03-13T06:00:43.813Z,50.834789
2023-03-13T06:01:43.826Z,50.834801
2023-03-13T06:02:43.766Z,50.834812
2023-03-13T06:03:44.235Z,50.834801
2023-03-13T06:04:44.409Z,50.834812
2023-03-13T06:05:43.732Z,50.834827
2023-03-13T06:06:43.737Z,50.834839
2023-03-13T06:07:44.303Z,50.834824
2023-03-13T06:08:43.752Z,50.834801
2023-03-13T06:09:43.841Z,50.834805
2023-03-13T06:10:43.698Z,50.834839
2023-03-13T06:11:43.690Z,50.834805
2023-03-13T06:12:43.681Z,50.834820
2023-03-13T06:13:43.669Z,50.834820
2023-03-13T06:14:43.677Z,50.834850
2023-03-13T06:15:44.679Z,50.834862
2023-03-13T06:16:43.675Z,50.834854
2023-03-13T06:17:43.661Z,50.834862
2023-03-13T06:18:43.705Z,50.834816
2023-03-13T06:19:43.627Z,50.834835
2023-03-13T06:20:43.633Z,50.834831
2023-03-13T06:21:43.640Z,50.834843
2023-03-13T06:22:43.605Z,50.834850
2023-03-13T06:23:43.594Z,50.834862
2023-03-13T06:24:43.595Z,50.834869
2023-03-13T06:25:43.627Z,50.834862
2023-03-13T06:26:43.646Z,50.834850
2023-03-13T06:27:43.560Z,50.834881
2023-03-13T06:28:43.566Z,50.834888
2023-03-13T06:29:43.568Z,50.834843
2023-03-13T06:30:43.581Z,50.834824
2023-03-13T06:31:43.689Z,50.834824
2023-03-13T06:32:43.667Z,50.834831
2023-03-13T06:33:43.529Z,50.834827
2023-03-13T06:34:43.560Z,50.834843
2023-03-13T06:35:55.904Z,50.834858
2023-03-13T06:36:45.571Z,50.834866
2023-03-13T06:37:43.510Z,50.834866
2023-03-13T06:38:43.503Z,50.834835
2023-03-13T06:39:43.530Z,50.834827
2023-03-13T06:40:43.599Z,50.834835
2023-03-13T06:41:43.509Z,50.834835
2023-03-13T06:42:43.526Z,50.834846
2023-03-13T06:43:43.445Z,50.834839
2023-03-13T06:44:43.450Z,50.834820
2023-03-13T06:45:43.429Z,50.834850
2023-03-13T06:46:43.679Z,50.834850
2023-03-13T06:47:43.438Z,50.834831
2023-03-13T06:48:43.406Z,50.834839
2023-03-13T06:49:43.419Z,50.834839
2023-03-13T06:50:43.413Z,50.834824
2023-03-13T06:51:43.421Z,50.834820
2023-03-13T06:52:44.306Z,50.834839
2023-03-13T06:53:44.374Z,50.834831
2023-03-13T06:54:43.383Z,50.834839
2023-03-13T06:55:43.389Z,50.834858
2023-03-13T06:56:43.371Z,50.834858
2023-03-13T06:57:43.373Z,50.834839
2023-03-13T06:58:43.356Z,50.834824
2023-03-13T06:59:43.325Z,50.834839
2023-03-13T07:00:43.348Z,50.834843
2023-03-13T07:01:43.336Z,50.834839
2023-03-13T07:02:43.460Z,50.834839
2023-03-13T07:03:44.767Z,50.834843
2023-03-13T07:04:45.192Z,50.834835
2023-03-13T07:05:44.321Z,50.834831
2023-03-13T07:06:43.267Z,50.834816
2023-03-13T07:07:43.284Z,50.834824
2023-03-13T07:08:43.280Z,50.834846
2023-03-13T07:09:43.288Z,50.834854
2023-03-13T07:10:43.348Z,50.834850
2023-03-13T07:11:43.296Z,50.834850
2023-03-13T07:12:43.355Z,50.834850
2023-03-13T07:13:43.224Z,50.834850
2023-03-13T07:14:43.262Z,50.834850
2023-03-13T07:15:43.283Z,50.834869
2023-03-13T07:16:43.233Z,50.834873
2023-03-13T07:17:43.261Z,50.834858
2023-03-13T07:18:43.196Z,50.834881
2023-03-13T07:19:43.183Z,50.834873
2023-03-13T07:20:43.296Z,50.834854
2023-03-13T07:21:43.208Z,50.834839
2023-03-13T07:22:43.172Z,50.834869
2023-03-13T07:23:43.150Z,50.834881
2023-03-13T07:24:43.192Z,50.834850
2023-03-13T07:25:43.147Z,50.834873
2023-03-13T07:26:57.965Z,50.834866
2023-03-13T07:27:45.107Z,50.834873
2023-03-13T07:28:43.107Z,50.834892
2023-03-13T07:29:43.109Z,50.834885
2023-03-13T07:30:43.117Z,50.834846
2023-03-13T07:31:43.099Z,50.834877
2023-03-13T07:32:43.087Z,50.834858
2023-03-13T07:33:43.090Z,50.834858
2023-03-13T07:34:43.054Z,50.834858
2023-03-13T07:35:43.071Z,50.834839
2023-03-13T07:36:43.104Z,50.834854
2023-03-13T07:37:43.037Z,50.834854
2023-03-13T07:38:43.039Z,50.834843
2023-03-13T07:39:43.068Z,50.834831
2023-03-13T07:40:43.038Z,50.834839
2023-03-13T07:41:43.043Z,50.834843
2023-03-13T07:42:43.016Z,50.834858
2023-03-13T07:43:43.029Z,50.834854
2023-03-13T07:44:43.001Z,50.834850
2023-03-13T07:45:43.035Z,50.834854
2023-03-13T07:46:43.028Z,50.834843
2023-03-13T07:47:42.984Z,50.834835
2023-03-13T07:48:42.945Z,50.834846
2023-03-13T07:49:42.955Z,50.834843
2023-03-13T07:50:43.031Z,50.834846
2023-03-13T07:51:44.464Z,50.834824
2023-03-13T07:52:43.980Z,50.834805
2023-03-13T07:53:42.911Z,50.834820
2023-03-13T07:54:42.997Z,50.834831
2023-03-13T07:55:42.910Z,50.834839
2023-03-13T07:56:42.895Z,50.834824
2023-03-13T07:57:42.874Z,50.834820
2023-03-13T07:58:42.878Z,50.834820
2023-03-13T07:59:42.898Z,50.834801
2023-03-13T08:00:42.921Z,50.834824
2023-03-13T08:01:42.904Z,50.834827
2023-03-13T08:02:42.953Z,50.834839
2023-03-13T08:03:43.032Z,50.834812
2023-03-13T08:04:42.913Z,50.834824
2023-03-13T08:05:42.923Z,50.834831
2023-03-13T08:06:42.899Z,50.834805
2023-03-13T08:07:42.821Z,50.834846
2023-03-13T08:08:42.867Z,50.834839
2023-03-13T08:09:42.844Z,50.834839
2023-03-13T08:11:16.255Z,50.834835
2023-03-13T08:11:42.786Z,50.834839
2023-03-13T08:12:42.823Z,50.834843
2023-03-13T08:13:42.798Z,50.834850
2023-03-13T08:14:42.779Z,50.834866
2023-03-13T08:15:42.791Z,50.834854
2023-03-13T08:16:42.813Z,50.834831
2023-03-13T08:17:42.828Z,50.834843
2023-03-13T08:18:42.734Z,50.834820
2023-03-13T08:19:42.740Z,50.834835
2023-03-13T08:20:45.251Z,50.834820
2023-03-13T08:21:42.703Z,50.834820
2023-03-13T08:22:43.373Z,50.834820
2023-03-13T08:23:42.824Z,50.834827
2023-03-13T08:24:42.710Z,50.834827
2023-03-13T08:25:42.696Z,50.834820
2023-03-13T08:26:42.701Z,50.834820
2023-03-13T08:27:42.662Z,50.834843
2023-03-13T08:28:43.421Z,50.834843
2023-03-13T08:29:42.662Z,50.834858
2023-03-13T08:30:42.668Z,50.834850
2023-03-13T08:31:42.619Z,50.834846
2023-03-13T08:32:43.400Z,50.834824
2023-03-13T08:33:42.685Z,50.834824
2023-03-13T08:34:42.699Z,50.834824
2023-03-13T08:35:42.680Z,50.834839
2023-03-13T08:36:42.653Z,50.834839
2023-03-13T08:37:42.733Z,50.834827
2023-03-13T08:38:44.120Z,50.834824
2023-03-13T08:39:42.581Z,50.834827
2023-03-13T08:40:42.583Z,50.834816
2023-03-13T08:41:42.624Z,50.834820
2023-03-13T08:42:42.532Z,50.834820
2023-03-13T08:43:42.524Z,50.834820
2023-03-13T08:44:42.544Z,50.834827
2023-03-13T08:45:42.581Z,50.834827
2023-03-13T08:46:42.628Z,50.834843
2023-03-13T08:47:42.510Z,50.834843
2023-03-13T08:48:42.518Z,50.834846
2023-03-13T08:49:42.539Z,50.834850
2023-03-13T08:50:42.564Z,50.834839
2023-03-13T08:51:42.484Z,50.834839
2023-03-13T08:52:42.462Z,50.834846
2023-03-13T08:53:42.463Z,50.834839
2023-03-13T08:54:42.574Z,50.834843
2023-03-13T08:55:42.532Z,50.834850
2023-03-13T08:56:42.469Z,50.834858
2023-03-13T08:57:42.454Z,50.834824
2023-03-13T08:58:42.448Z,50.834839
2023-03-13T08:59:42.415Z,50.834839
2023-03-13T09:00:42.404Z,50.834835
2023-03-13T09:01:42.471Z,50.834827
2023-03-13T09:02:42.442Z,50.834843
2023-03-13T09:03:42.446Z,50.834843
2023-03-13T09:04:42.412Z,50.834869
2023-03-13T09:05:55.091Z,50.834858
2023-03-13T09:06:44.440Z,50.834866
2023-03-13T09:07:42.342Z,50.834854
2023-03-13T09:08:42.345Z,50.834858
2023-03-13T09:09:43.356Z,50.834850
2023-03-13T09:10:42.330Z,50.834850
2023-03-13T09:11:42.370Z,50.834862
2023-03-13T09:12:42.351Z,50.834877
2023-03-13T09:13:42.355Z,50.834854
2023-03-13T09:14:42.866Z,50.834866
2023-03-13T09:15:42.332Z,50.834850
2023-03-13T09:16:42.280Z,50.834858
2023-03-13T09:17:42.324Z,50.834873
2023-03-13T09:18:42.302Z,50.834877
2023-03-13T09:19:54.266Z,50.834862
2023-03-13T09:20:44.342Z,50.834850
2023-03-13T09:21:42.245Z,50.834839
2023-03-13T09:22:42.249Z,50.834858
2023-03-13T09:23:42.222Z,50.834854
2023-03-13T09:24:42.266Z,50.834862
2023-03-13T09:25:42.222Z,50.834835
2023-03-13T09:26:48.996Z,50.834827
2023-03-13T09:27:44.231Z,50.834805
2023-03-13T09:28:42.242Z,50.834816
2023-03-13T09:29:42.457Z,50.834816
2023-03-13T09:30:42.308Z,50.834831
2023-03-13T09:31:42.225Z,50.834839
2023-03-13T09:32:42.278Z,50.834805
2023-03-13T09:33:42.150Z,50.834797
2023-03-13T09:34:42.158Z,50.834812
2023-03-13T09:35:42.166Z,50.834789
2023-03-13T09:36:42.126Z,50.834812
2023-03-13T09:37:42.174Z,50.834812
2023-03-13T09:38:42.118Z,50.834820
2023-03-13T09:39:42.130Z,50.834808
2023-03-13T09:40:42.156Z,50.834789
2023-03-13T09:41:42.094Z,50.834805
2023-03-13T09:42:42.103Z,50.834805
2023-03-13T09:43:42.164Z,50.834820
2023-03-13T09:44:42.077Z,50.834801
2023-03-13T09:45:43.086Z,50.834812
2023-03-13T09:46:42.108Z,50.834831
2023-03-13T09:47:42.075Z,50.834824
2023-03-13T09:48:42.044Z,50.834801
2023-03-13T09:49:42.093Z,50.834793
2023-03-13T09:50:42.075Z,50.834805
2023-03-13T09:51:42.017Z,50.834801
2023-03-13T09:52:42.022Z,50.834812
2023-03-13T09:53:42.038Z,50.834797
2023-03-13T09:54:42.017Z,50.834812
2023-03-13T09:55:41.980Z,50.834805
2023-03-13T09:56:41.971Z,50.834793
2023-03-13T09:57:41.989Z,50.834812
2023-03-13T09:58:42.208Z,50.834824
2023-03-13T09:59:41.954Z,50.834820
2023-03-13T10:00:42.067Z,50.834812
2023-03-13T10:01:41.986Z,50.834808
2023-03-13T10:02:41.935Z,50.834816
2023-03-13T10:03:41.972Z,50.834820
2023-03-13T10:04:42.190Z,50.834805
2023-03-13T10:05:42.975Z,50.834812
2023-03-13T10:06:41.896Z,50.834812
2023-03-13T10:07:41.926Z,50.834820
2023-03-13T10:08:41.908Z,50.834827
2023-03-13T10:09:41.875Z,50.834831
2023-03-13T10:10:41.886Z,50.834820
2023-03-13T10:11:41.853Z,50.834827
2023-03-13T10:12:41.850Z,50.834827
2023-03-13T10:13:41.858Z,50.834820
2023-03-13T10:14:41.926Z,50.834808
2023-03-13T10:15:41.839Z,50.834793
2023-03-13T10:16:41.892Z,50.834785
2023-03-13T10:17:41.800Z,50.834793
2023-03-13T10:18:41.839Z,50.834793
2023-03-13T10:19:41.853Z,50.834801
2023-03-13T10:20:41.761Z,50.834812
2023-03-13T10:21:41.792Z,50.834808
2023-03-13T10:22:41.793Z,50.834785
2023-03-13T10:23:41.770Z,50.834778
2023-03-13T10:24:41.783Z,50.834801
2023-03-13T10:26:14.373Z,50.834793
2023-03-13T10:26:41.745Z,50.834789
2023-03-13T10:27:41.759Z,50.834808
2023-03-13T10:28:41.733Z,50.834793
2023-03-13T10:29:41.708Z,50.834793
2023-03-13T10:30:41.727Z,50.834789
2023-03-13T10:31:41.758Z,50.834778
2023-03-13T10:32:41.773Z,50.834789
2023-03-13T10:33:41.716Z,50.834801
2023-03-13T10:34:41.845Z,50.834789
2023-03-13T10:35:42.422Z,50.834789
2023-03-13T10:36:41.654Z,50.834789
2023-03-13T10:37:41.861Z,50.834789
2023-03-13T10:38:41.648Z,50.834805
2023-03-13T10:39:41.691Z,50.834812
2023-03-13T10:40:41.630Z,50.834820
2023-03-13T10:45:40.388Z,50.834881
2023-03-13T10:46:40.507Z,50.834843
2023-03-13T10:47:40.353Z,50.834831
2023-03-13T10:48:40.341Z,50.834816
2023-03-13T10:49:40.923Z,50.834816
2023-03-13T10:50:40.374Z,50.834801
2023-03-13T10:51:40.317Z,50.834805
2023-03-13T10:52:40.348Z,50.834797
2023-03-13T10:53:40.296Z,50.834805
2023-03-13T10:54:40.348Z,50.834805
2023-03-13T10:55:40.294Z,50.834824
2023-03-13T10:56:40.970Z,50.834812
2023-03-13T10:57:40.304Z,50.834835
2023-03-13T10:58:40.264Z,50.834824
2023-03-13T10:59:40.338Z,50.834827
2023-03-13T11:00:40.288Z,50.834827
2023-03-13T11:01:40.274Z,50.834797
2023-03-13T11:02:40.393Z,50.834789
2023-03-13T11:03:41.484Z,50.834789
2023-03-13T11:04:40.217Z,50.834778
2023-03-13T11:05:40.212Z,50.834763
2023-03-13T11:06:40.501Z,50.834789
2023-03-13T11:07:40.194Z,50.834797
2023-03-13T11:08:40.279Z,50.834770
2023-03-13T11:09:40.233Z,50.834793
2023-03-13T11:10:40.173Z,50.834801
2023-03-13T11:11:40.175Z,50.834797
2023-03-13T11:12:40.161Z,50.834793
2023-03-13T11:13:40.982Z,50.834793
2023-03-13T11:14:40.313Z,50.834793
2023-03-13T11:15:40.150Z,50.834808
2023-03-13T11:16:40.312Z,50.834793
2023-03-13T11:17:40.141Z,50.834812
2023-03-13T11:18:40.125Z,50.834797
2023-03-13T11:19:40.090Z,50.834793
2023-03-13T11:20:40.114Z,50.834808
2023-03-13T11:21:40.091Z,50.834778
2023-03-13T11:22:40.100Z,50.834778
2023-03-13T11:23:40.091Z,50.834778
2023-03-13T11:24:40.043Z,50.834782
2023-03-13T11:25:40.047Z,50.834778
2023-03-13T11:29:38.732Z,50.834877
2023-03-13T11:30:38.592Z,50.834854
2023-03-13T11:31:38.617Z,50.834824
2023-03-13T11:32:38.645Z,50.834827
2023-03-13T11:33:38.565Z,50.834831
2023-03-13T11:34:38.696Z,50.834816
2023-03-13T11:35:38.564Z,50.834824
2023-03-13T11:36:39.151Z,50.834831
2023-03-13T11:37:38.708Z,50.834831
2023-03-13T11:38:38.528Z,50.834801
2023-03-13T11:39:38.594Z,50.834808
2023-03-13T11:40:38.488Z,50.834827
2023-03-13T11:41:38.623Z,50.834812
2023-03-13T11:42:38.472Z,50.834808
2023-03-13T11:43:40.760Z,50.834793
2023-03-13T11:44:38.521Z,50.834785
2023-03-13T11:45:38.516Z,50.834782
2023-03-13T11:46:38.540Z,50.834793
2023-03-13T11:47:38.506Z,50.834805
2023-03-13T11:48:38.471Z,50.834793
2023-03-13T11:49:39.777Z,50.834801
2023-03-13T11:50:39.456Z,50.834789
2023-03-13T11:51:38.530Z,50.834797
2023-03-13T11:52:38.407Z,50.834808
2023-03-13T11:53:38.384Z,50.834801
2023-03-13T11:54:38.444Z,50.834797
2023-03-13T11:55:38.406Z,50.834793
2023-03-13T11:56:38.454Z,50.834789
2023-03-13T11:57:38.407Z,50.834797
2023-03-13T11:58:38.387Z,50.834793
2023-03-13T11:59:39.068Z,50.834808
2023-03-13T12:00:38.512Z,50.834820
2023-03-13T12:01:38.378Z,50.834820
2023-03-13T12:02:38.350Z,50.834805
2023-03-13T12:03:38.353Z,50.834797